Time;durP1;ratioP1;P1;durP2;ratioP2;P2;SDS_P1;SDS_P2;PMS_P1;PMS_P2;Temp;Humidity;BMP_temperature;BMP_pressure;BME280_temperature;BME280_humidity;BME280_pressure;Samples;Min_cycle;Max_cycle;Signal;HPM_P1;HPM_P2
2021/05/12 00:00:22;;;;;;;11.10;8.57;;;22.70;91.40;;;;;;5091795;28;20025;-85
2021/05/12 00:02:48;;;;;;;10.52;8.25;;;22.70;91.40;;;;;;5091642;28;20525;-84
2021/05/12 00:05:16;;;;;;;10.32;8.13;;;22.70;91.40;;;;;;5093145;28;20028;-85
2021/05/12 00:07:42;;;;;;;9.93;8.07;;;22.70;91.40;;;;;;5091443;28;20020;-85
2021/05/12 00:10:10;;;;;;;11.88;8.77;;;22.70;91.40;;;;;;5091299;28;20073;-86
2021/05/12 00:12:37;;;;;;;10.18;8.35;;;22.70;91.40;;;;;;5091281;28;20489;-86
2021/05/12 00:15:05;;;;;;;10.63;8.25;;;22.70;91.40;;;;;;5091166;28;20054;-85
2021/05/12 00:17:30;;;;;;;10.40;8.50;;;22.70;91.40;;;;;;5091502;28;20500;-84
2021/05/12 00:19:58;;;;;;;11.93;8.65;;;22.70;91.40;;;;;;5092722;28;20032;-85
2021/05/12 00:22:36;;;;;;;10.93;8.18;;;22.70;91.40;;;;;;5091646;28;20038;-84
2021/05/12 00:25:05;;;;;;;12.88;8.85;;;22.70;91.40;;;;;;5076162;28;20035;-84
2021/05/12 00:27:30;;;;;;;10.55;8.73;;;22.70;91.40;;;;;;5092878;28;20394;-85
2021/05/12 00:29:56;;;;;;;9.93;8.15;;;22.70;91.40;;;;;;5078190;28;20032;-85
2021/05/12 00:32:22;;;;;;;12.98;9.63;;;22.70;91.30;;;;;;5096497;28;20056;-85
2021/05/12 00:34:48;;;;;;;10.82;8.48;;;22.70;91.30;;;;;;5096571;28;20043;-89
2021/05/12 00:37:14;;;;;;;11.35;8.80;;;22.60;91.30;;;;;;5095437;28;20024;-85
2021/05/12 00:39:39;;;;;;;14.65;10.18;;;22.60;91.30;;;;;;5095274;28;20397;-85
2021/05/12 00:42:05;;;;;;;11.73;9.23;;;22.70;91.30;;;;;;5096374;28;20024;-85
2021/05/12 00:44:31;;;;;;;12.63;9.70;;;22.70;91.30;;;;;;5095312;28;20024;-85
2021/05/12 00:47:02;;;;;;;13.05;9.27;;;22.60;91.30;;;;;;5096543;28;20471;-85
2021/05/12 00:49:28;;;;;;;11.88;8.82;;;22.70;91.30;;;;;;5096169;28;20036;-85
2021/05/12 00:51:53;;;;;;;12.65;9.90;;;22.60;91.30;;;;;;5077908;28;20024;-86
2021/05/12 00:54:19;;;;;;;12.30;9.88;;;22.60;91.30;;;;;;5094860;28;20041;-85
2021/05/12 00:56:45;;;;;;;11.13;9.10;;;22.60;91.30;;;;;;5094867;28;20036;-85
2021/05/12 00:59:10;;;;;;;12.32;9.43;;;22.70;91.30;;;;;;5077851;28;20081;-85
2021/05/12 01:01:37;;;;;;;14.30;10.20;;;22.70;91.30;;;;;;5077817;28;20035;-86
2021/05/12 01:04:05;;;;;;;12.30;9.55;;;22.60;91.30;;;;;;5095811;28;20047;-86
2021/05/12 01:06:35;;;;;;;12.80;10.50;;;22.60;91.30;;;;;;5094571;28;20020;-86
2021/05/12 01:09:00;;;;;;;12.80;10.48;;;22.60;91.30;;;;;;5094150;28;20028;-86
2021/05/12 01:11:27;;;;;;;14.10;11.00;;;22.60;91.30;;;;;;5077768;28;20035;-86
2021/05/12 01:13:53;;;;;;;14.35;11.38;;;22.70;91.40;;;;;;5095722;28;20103;-87
2021/05/12 01:16:20;;;;;;;14.18;11.77;;;22.60;91.30;;;;;;5095679;28;20462;-86
2021/05/12 01:18:46;;;;;;;14.25;11.77;;;22.70;91.40;;;;;;5094355;28;20087;-86
2021/05/12 01:21:12;;;;;;;15.10;11.55;;;22.70;91.40;;;;;;5094442;28;20024;-85
2021/05/12 01:23:44;;;;;;;15.23;11.90;;;22.60;91.30;;;;;;5094763;28;20039;-86
2021/05/12 01:26:15;;;;;;;16.15;12.68;;;22.60;91.30;;;;;;5094218;28;20024;-86
2021/05/12 01:28:44;;;;;;;16.77;13.05;;;22.60;91.30;;;;;;5095668;28;20028;-86
2021/05/12 01:31:15;;;;;;;17.58;13.45;;;22.60;91.60;;;;;;5095261;28;20028;-86
2021/05/12 01:33:41;;;;;;;16.83;13.77;;;22.60;91.40;;;;;;5094017;28;20467;-86
2021/05/12 01:36:07;;;;;;;19.20;13.80;;;22.60;91.30;;;;;;5095157;28;20028;-86
2021/05/12 01:38:34;;;;;;;18.77;14.65;;;22.60;91.30;;;;;;5077021;28;20062;-86
2021/05/12 01:41:02;;;;;;;17.75;13.55;;;22.60;91.40;;;;;;5093967;28;20028;-86
2021/05/12 01:43:32;;;;;;;19.48;15.02;;;22.60;91.40;;;;;;5094267;28;20024;-86
2021/05/12 01:45:58;;;;;;;20.35;15.25;;;22.60;91.40;;;;;;5093824;28;20362;-87
2021/05/12 01:48:24;;;;;;;19.38;15.40;;;22.60;91.30;;;;;;5093832;28;20039;-86
2021/05/12 01:50:50;;;;;;;19.13;15.18;;;22.60;91.30;;;;;;5077024;28;20028;-86
2021/05/12 01:53:16;;;;;;;20.10;16.08;;;22.60;91.40;;;;;;5077150;28;20224;-86
2021/05/12 01:55:42;;;;;;;18.98;15.77;;;22.60;91.40;;;;;;5095184;28;20073;-86
2021/05/12 01:58:08;;;;;;;18.88;15.23;;;22.60;91.30;;;;;;5093465;28;20174;-86
2021/05/12 02:00:39;;;;;;;18.65;15.70;;;22.60;91.30;;;;;;5094820;28;20103;-86
2021/05/12 02:03:07;;;;;;;20.27;16.95;;;22.60;91.40;;;;;;5093314;28;20081;-87
2021/05/12 02:05:34;;;;;;;19.10;15.80;;;22.60;91.40;;;;;;5093788;28;20034;-86
2021/05/12 02:08:01;;;;;;;20.42;16.80;;;22.60;91.40;;;;;;5093282;28;20036;-87
2021/05/12 02:10:27;;;;;;;21.02;17.58;;;22.60;91.30;;;;;;5076638;28;20493;-86
2021/05/12 02:12:54;;;;;;;20.83;17.50;;;22.60;91.30;;;;;;5093213;28;20492;-86
2021/05/12 02:15:21;;;;;;;21.73;17.88;;;22.60;91.30;;;;;;5093067;28;20039;-86
2021/05/12 02:17:47;;;;;;;21.83;17.88;;;22.60;91.30;;;;;;5094435;28;20063;-86
2021/05/12 02:20:17;;;;;;;23.42;18.20;;;22.60;91.30;;;;;;5094383;28;20081;-86
2021/05/12 02:22:42;;;;;;;21.80;18.27;;;22.60;91.60;;;;;;5094286;28;20031;-86
2021/05/12 02:25:09;;;;;;;23.73;18.77;;;22.60;91.30;;;;;;5094125;28;20032;-86
2021/05/12 02:27:35;;;;;;;24.55;19.05;;;22.60;91.30;;;;;;5094583;28;20043;-86
2021/05/12 02:30:01;;;;;;;23.30;18.92;;;22.60;91.30;;;;;;5092723;28;20036;-86
2021/05/12 02:32:28;;;;;;;21.73;18.15;;;22.60;91.30;;;;;;5075550;28;20088;-86
2021/05/12 02:34:54;;;;;;;24.73;19.92;;;22.60;91.30;;;;;;5094380;28;20047;-86
2021/05/12 02:37:20;;;;;;;26.02;20.23;;;22.60;91.30;;;;;;5092649;28;20032;-86
2021/05/12 02:39:45;;;;;;;25.05;19.98;;;22.60;91.30;;;;;;5094348;28;20404;-85
2021/05/12 02:42:11;;;;;;;24.33;19.83;;;22.60;91.30;;;;;;5093760;28;20024;-86
2021/05/12 02:44:36;;;;;;;23.95;19.88;;;22.60;91.30;;;;;;5092993;28;20466;-86
2021/05/12 02:47:02;;;;;;;27.35;21.08;;;22.60;91.30;;;;;;5093596;28;20066;-86
2021/05/12 02:49:28;;;;;;;27.42;21.50;;;22.60;91.30;;;;;;5074954;28;20037;-86
2021/05/12 02:51:53;;;;;;;25.40;20.63;;;22.60;91.30;;;;;;5092703;28;20028;-86
2021/05/12 02:54:19;;;;;;;28.17;21.00;;;22.60;91.30;;;;;;5092414;28;20028;-86
2021/05/12 02:56:45;;;;;;;25.77;20.95;;;22.60;91.30;;;;;;5075838;28;20552;-86
2021/05/12 02:59:11;;;;;;;27.33;23.08;;;22.60;91.30;;;;;;5092194;28;20027;-86
2021/05/12 03:01:37;;;;;;;24.77;20.73;;;22.60;91.30;;;;;;5058792;28;20393;-86
2021/05/12 03:04:03;;;;;;;26.63;21.58;;;22.60;91.30;;;;;;5092140;28;20032;-91
2021/05/12 03:06:28;;;;;;;25.17;20.70;;;22.60;91.30;;;;;;5093947;28;20028;-86
2021/05/12 03:08:54;;;;;;;27.27;21.85;;;22.60;91.30;;;;;;5093666;28;20067;-86
2021/05/12 03:11:20;;;;;;;25.08;20.90;;;22.60;91.30;;;;;;5092078;28;20462;-86
2021/05/12 03:13:45;;;;;;;24.38;20.85;;;22.60;91.30;;;;;;5093394;28;20039;-86
2021/05/12 03:16:11;;;;;;;26.73;22.48;;;22.50;91.30;;;;;;5091816;28;20060;-86
2021/05/12 03:18:37;;;;;;;27.38;22.15;;;22.60;91.30;;;;;;5093446;28;20386;-86
2021/05/12 03:21:03;;;;;;;26.60;21.52;;;22.60;91.30;;;;;;5092336;28;20056;-86
2021/05/12 03:23:28;;;;;;;27.50;22.25;;;22.50;91.30;;;;;;5074985;28;20449;-86
2021/05/12 03:25:54;;;;;;;27.08;21.88;;;22.50;91.30;;;;;;5093376;28;20124;-86
2021/05/12 03:28:20;;;;;;;26.27;21.75;;;22.60;91.30;;;;;;5074997;28;20057;-86
2021/05/12 03:30:46;;;;;;;25.58;21.13;;;22.60;91.30;;;;;;5091864;28;20470;-86
2021/05/12 03:33:12;;;;;;;26.67;21.38;;;22.50;91.30;;;;;;5091563;28;20093;-86
2021/05/12 03:35:39;;;;;;;25.55;21.33;;;22.50;91.30;;;;;;5093420;28;20120;-86
2021/05/12 03:38:06;;;;;;;28.08;22.70;;;22.50;91.50;;;;;;5092120;28;20073;-86
2021/05/12 03:40:32;;;;;;;25.60;21.55;;;22.50;91.30;;;;;;5092194;28;20028;-86
2021/05/12 03:42:59;;;;;;;27.70;22.13;;;22.50;91.50;;;;;;5091928;28;20028;-86
2021/05/12 03:45:26;;;;;;;26.85;22.25;;;22.50;91.30;;;;;;5092878;28;20043;-86
2021/05/12 03:47:52;;;;;;;26.85;21.67;;;22.50;91.30;;;;;;5091849;28;20104;-86
2021/05/12 03:50:19;;;;;;;25.88;21.77;;;22.50;91.30;;;;;;5091945;28;20047;-85
2021/05/12 03:52:45;;;;;;;26.00;21.55;;;22.50;91.30;;;;;;5091944;28;20262;-86
2021/05/12 03:55:13;;;;;;;23.85;20.23;;;22.50;91.30;;;;;;5091655;28;20393;-86
2021/05/12 03:57:39;;;;;;;26.58;21.40;;;22.50;91.30;;;;;;5091688;28;20145;-86
2021/05/12 04:00:06;;;;;;;26.85;21.52;;;22.50;91.30;;;;;;5092811;28;20268;-86
2021/05/12 04:02:32;;;;;;;27.60;21.35;;;22.50;91.30;;;;;;5096518;28;20020;-86
2021/05/12 04:04:58;;;;;;;26.75;21.90;;;22.50;91.30;;;;;;5078977;28;20478;-86
2021/05/12 04:07:24;;;;;;;27.27;22.25;;;22.50;91.40;;;;;;5096829;28;20031;-86
2021/05/12 04:09:50;;;;;;;24.98;20.17;;;22.50;91.40;;;;;;5096990;28;20035;-86
2021/05/12 04:12:15;;;;;;;29.60;23.33;;;22.50;91.40;;;;;;5095584;28;20036;-86
2021/05/12 04:14:41;;;;;;;26.13;21.58;;;22.50;91.40;;;;;;5095729;28;20535;-86
2021/05/12 04:17:06;;;;;;;26.40;21.67;;;22.50;91.40;;;;;;5096901;28;20035;-86
2021/05/12 04:19:32;;;;;;;25.10;20.65;;;22.50;91.40;;;;;;5096613;28;20397;-86
2021/05/12 04:21:58;;;;;;;24.35;20.65;;;22.50;91.40;;;;;;5078533;28;20032;-86
2021/05/12 04:24:24;;;;;;;26.33;21.05;;;22.50;91.40;;;;;;5095135;28;20028;-86
2021/05/12 04:26:50;;;;;;;26.10;20.52;;;22.50;91.40;;;;;;5095441;28;20052;-86
2021/05/12 04:29:16;;;;;;;26.38;21.10;;;22.50;91.40;;;;;;5096582;28;20046;-86
2021/05/12 04:31:42;;;;;;;26.25;20.90;;;22.50;91.40;;;;;;5097970;28;20110;-86
2021/05/12 04:34:08;;;;;;;26.33;21.25;;;22.50;91.40;;;;;;5078310;28;20381;-86
2021/05/12 04:36:34;;;;;;;24.58;20.13;;;22.50;91.40;;;;;;5061623;28;20115;-86
2021/05/12 04:39:00;;;;;;;26.50;20.92;;;22.50;91.40;;;;;;5078191;28;20036;-86
2021/05/12 04:41:26;;;;;;;23.60;20.27;;;22.50;91.40;;;;;;5096228;28;20065;-86
2021/05/12 04:43:54;;;;;;;22.85;19.92;;;22.50;91.40;;;;;;5096921;28;20052;-85
2021/05/12 04:46:20;;;;;;;23.80;19.73;;;22.50;91.40;;;;;;5103245;28;20035;-86
2021/05/12 04:48:46;;;;;;;22.67;19.60;;;22.50;91.40;;;;;;5064555;28;20036;-86
2021/05/12 04:51:12;;;;;;;23.60;19.58;;;22.50;91.40;;;;;;5095138;28;20086;-86
2021/05/12 04:53:37;;;;;;;22.38;19.10;;;22.50;91.40;;;;;;5095088;28;20032;-86
2021/05/12 04:56:03;;;;;;;23.30;19.35;;;22.50;91.40;;;;;;5096338;28;20481;-86
2021/05/12 04:58:29;;;;;;;23.58;19.05;;;22.50;91.40;;;;;;5078150;28;20036;-86
2021/05/12 05:00:54;;;;;;;23.63;19.83;;;22.50;91.40;;;;;;5095612;28;20054;-85
2021/05/12 05:03:20;;;;;;;23.00;19.17;;;22.50;91.40;;;;;;5095146;28;20115;-86
2021/05/12 05:05:46;;;;;;;23.92;18.92;;;22.50;91.40;;;;;;5096013;28;20035;-85
2021/05/12 05:08:11;;;;;;;22.65;18.60;;;22.50;91.40;;;;;;5095184;28;20114;-85
2021/05/12 05:10:37;;;;;;;20.55;17.25;;;22.50;91.40;;;;;;5094231;28;20458;-85
2021/05/12 05:13:03;;;;;;;21.67;17.83;;;22.50;91.40;;;;;;5094756;28;20032;-85
2021/05/12 05:15:28;;;;;;;21.52;17.77;;;22.60;91.50;;;;;;5095890;28;20458;-84
2021/05/12 05:17:54;;;;;;;19.75;16.63;;;22.50;91.40;;;;;;5095616;28;20048;-84
2021/05/12 05:20:22;;;;;;;22.00;17.00;;;22.50;91.40;;;;;;5095961;28;20454;-85
2021/05/12 05:22:47;;;;;;;19.20;15.70;;;22.50;91.40;;;;;;5094702;28;20028;-85
2021/05/12 05:25:13;;;;;;;19.70;15.85;;;22.60;91.50;;;;;;5094313;28;20367;-85
2021/05/12 05:27:39;;;;;;;18.25;15.63;;;22.60;91.40;;;;;;5095612;28;20062;-86
2021/05/12 05:30:05;;;;;;;18.27;15.75;;;22.60;91.50;;;;;;5077620;28;20044;-86
2021/05/12 05:32:31;;;;;;;18.40;16.02;;;22.60;91.40;;;;;;5095398;28;20024;-86
2021/05/12 05:34:57;;;;;;;18.33;15.93;;;22.60;91.50;;;;;;5077239;28;20516;-86
2021/05/12 05:37:24;;;;;;;18.42;15.13;;;22.60;91.50;;;;;;5093662;28;20039;-86
2021/05/12 05:39:51;;;;;;;18.75;15.68;;;22.60;91.60;;;;;;5094352;28;20039;-86
2021/05/12 05:42:17;;;;;;;18.73;15.60;;;22.60;91.60;;;;;;5094351;28;20035;-86
2021/05/12 05:44:43;;;;;;;19.90;15.98;;;22.70;91.70;;;;;;5094681;28;20029;-87
2021/05/12 05:47:08;;;;;;;17.75;15.02;;;22.60;91.70;;;;;;5060254;28;20024;-86
2021/05/12 05:49:37;;;;;;;18.05;14.48;;;22.70;91.70;;;;;;5094509;28;20397;-85
2021/05/12 05:52:04;;;;;;;17.05;14.35;;;22.70;91.70;;;;;;5094875;28;20034;-86
2021/05/12 05:54:30;;;;;;;19.05;15.63;;;22.70;91.70;;;;;;5094278;28;20400;-87
2021/05/12 05:57:02;;;;;;;17.23;14.15;;;22.70;91.70;;;;;;5076515;28;20043;-86
2021/05/12 05:59:27;;;;;;;16.52;13.70;;;22.70;91.60;;;;;;5076628;28;20028;-86
2021/05/12 06:01:55;;;;;;;16.58;13.57;;;22.70;91.60;;;;;;5094999;28;20028;-85
2021/05/12 06:04:21;;;;;;;16.50;13.20;;;22.70;91.60;;;;;;5076960;28;20069;-86
2021/05/12 06:06:46;;;;;;;14.95;12.60;;;22.70;91.60;;;;;;5076535;28;20028;-86
2021/05/12 06:09:12;;;;;;;16.05;11.95;;;22.70;91.50;;;;;;5059917;28;20520;-86
2021/05/12 06:11:37;;;;;;;14.63;11.55;;;22.70;91.50;;;;;;5094522;28;20036;-86
2021/05/12 06:14:03;;;;;;;14.30;11.52;;;22.70;91.50;;;;;;5076393;28;20028;-86
2021/05/12 06:16:29;;;;;;;14.80;10.77;;;22.70;91.50;;;;;;5078188;28;20115;-85
2021/05/12 06:18:55;;;;;;;14.90;11.88;;;22.80;91.40;;;;;;5094645;28;20087;-85
2021/05/12 06:21:20;;;;;;;11.45;10.00;;;22.80;91.40;;;;;;5076271;28;20024;-86
2021/05/12 06:23:46;;;;;;;12.80;10.90;;;22.80;91.40;;;;;;5093962;28;20458;-87
2021/05/12 06:26:19;;;;;;;10.77;8.98;;;22.80;91.40;;;;;;5094634;28;20116;-86
2021/05/12 06:28:45;;;;;;;11.63;9.77;;;22.80;91.40;;;;;;5075693;28;20044;-85
2021/05/12 06:31:12;;;;;;;11.55;9.50;;;22.80;91.40;;;;;;5094669;28;20152;-85
2021/05/12 06:33:46;;;;;;;10.80;9.02;;;22.80;91.40;;;;;;5075824;28;20052;-86
2021/05/12 06:36:12;;;;;;;11.55;9.38;;;22.80;91.40;;;;;;5076873;28;20060;-86
2021/05/12 06:38:38;;;;;;;10.65;8.95;;;22.80;91.30;;;;;;5093711;28;20054;-86
2021/05/12 06:41:04;;;;;;;10.93;8.05;;;22.80;91.30;;;;;;5059462;28;20032;-86
2021/05/12 06:43:30;;;;;;;11.18;9.18;;;22.90;91.30;;;;;;5093825;28;20035;-86
2021/05/12 06:45:56;;;;;;;9.43;8.25;;;22.90;91.30;;;;;;5059281;28;20032;-86
2021/05/12 06:48:21;;;;;;;10.18;8.27;;;22.90;91.30;;;;;;5094066;28;20359;-86
2021/05/12 06:50:48;;;;;;;11.38;8.77;;;22.90;91.20;;;;;;5075396;28;20469;-87
2021/05/12 06:53:13;;;;;;;10.93;8.27;;;22.90;91.20;;;;;;5075333;28;20024;-86
2021/05/12 06:55:39;;;;;;;9.80;8.00;;;22.90;91.20;;;;;;5075636;28;20027;-85
2021/05/12 06:58:07;;;;;;;9.63;7.40;;;22.90;91.10;;;;;;5093599;28;20028;-85
2021/05/12 07:00:33;;;;;;;9.00;7.80;;;22.90;91.10;;;;;;5075700;28;20028;-86
2021/05/12 07:02:58;;;;;;;9.38;7.35;;;22.90;91.10;;;;;;5075621;28;20027;-85
2021/05/12 07:05:24;;;;;;;9.38;7.40;;;22.90;91.10;;;;;;5075207;28;20111;-85
2021/05/12 07:07:50;;;;;;;8.85;7.07;;;22.90;91.10;;;;;;5058605;28;20603;-85
2021/05/12 07:10:16;;;;;;;9.38;7.40;;;22.90;91.10;;;;;;5093560;28;20036;-86
2021/05/12 07:12:42;;;;;;;8.35;6.80;;;22.90;91.10;;;;;;5076054;28;20428;-85
2021/05/12 07:15:10;;;;;;;8.27;6.80;;;22.90;91.10;;;;;;5058655;28;20412;-85
2021/05/12 07:17:36;;;;;;;9.43;7.40;;;22.90;91.10;;;;;;5075661;28;20043;-85
2021/05/12 07:20:04;;;;;;;8.85;6.13;;;22.90;91.10;;;;;;5074979;28;20028;-86
2021/05/12 07:22:29;;;;;;;8.32;6.50;;;23.00;91.10;;;;;;5093477;28;20032;-85
2021/05/12 07:24:55;;;;;;;7.07;6.32;;;23.00;91.10;;;;;;5093104;28;20382;-85
2021/05/12 07:27:22;;;;;;;8.15;6.90;;;23.00;91.10;;;;;;5074752;28;20063;-85
2021/05/12 07:29:49;;;;;;;7.47;6.68;;;23.00;91.10;;;;;;5058679;28;20454;-85
2021/05/12 07:32:15;;;;;;;8.82;7.07;;;23.00;91.10;;;;;;5075317;28;20052;-85
2021/05/12 07:34:41;;;;;;;10.38;8.15;;;23.00;91.20;;;;;;5092786;28;20059;-86
2021/05/12 07:37:07;;;;;;;11.65;8.98;;;23.00;91.20;;;;;;5074796;28;20027;-85
2021/05/12 07:39:33;;;;;;;10.23;8.52;;;23.00;91.20;;;;;;5075179;28;20432;-90
2021/05/12 07:42:02;;;;;;;11.43;8.77;;;23.00;91.20;;;;;;5058430;28;20064;-86
2021/05/12 07:44:27;;;;;;;11.20;9.10;;;23.00;91.20;;;;;;5075685;28;20052;-85
2021/05/12 07:46:53;;;;;;;11.35;9.30;;;23.00;91.20;;;;;;5074891;28;20068;-85
2021/05/12 07:49:19;;;;;;;10.73;8.63;;;23.00;91.20;;;;;;5074682;28;20039;-86
2021/05/12 07:51:44;;;;;;;12.88;9.60;;;23.10;91.20;;;;;;5058191;28;20114;-86
2021/05/12 07:54:10;;;;;;;10.35;8.27;;;23.10;91.20;;;;;;5092858;28;20084;-85
2021/05/12 07:56:35;;;;;;;10.15;8.18;;;23.10;91.10;;;;;;5058108;28;20037;-86
2021/05/12 07:59:01;;;;;;;10.02;8.48;;;23.10;91.10;;;;;;5074838;28;20047;-85
2021/05/12 08:01:39;;;;;;;10.68;8.13;;;23.10;91.10;;;;;;5092670;28;20060;-85
2021/05/12 08:04:05;;;;;;;10.32;8.20;;;23.10;91.10;;;;;;5059537;28;20039;-85
2021/05/12 08:06:31;;;;;;;11.70;9.20;;;23.10;91.10;;;;;;5092987;28;20028;-85
2021/05/12 08:08:56;;;;;;;10.10;8.27;;;23.10;91.10;;;;;;5058118;28;20040;-85
2021/05/12 08:11:22;;;;;;;9.65;8.15;;;23.10;91.10;;;;;;5075365;28;20078;-85
2021/05/12 08:13:49;;;;;;;9.75;7.88;;;23.10;91.00;;;;;;5075595;28;20070;-85
2021/05/12 08:16:15;;;;;;;8.77;7.35;;;23.10;91.00;;;;;;5038026;28;20039;-87
2021/05/12 08:18:40;;;;;;;7.30;6.35;;;23.10;91.00;;;;;;5054095;28;20036;-86
2021/05/12 08:21:06;;;;;;;8.45;6.50;;;23.10;91.00;;;;;;5072521;28;20033;-85
2021/05/12 08:23:32;;;;;;;7.85;6.57;;;23.10;91.00;;;;;;5037816;28;20466;-85
2021/05/12 08:25:58;;;;;;;8.43;6.43;;;23.10;91.00;;;;;;5054308;28;20044;-85
2021/05/12 08:28:23;;;;;;;7.05;6.05;;;23.10;91.10;;;;;;5072196;28;20033;-85
2021/05/12 08:30:49;;;;;;;7.22;5.88;;;23.10;91.10;;;;;;5053978;28;20035;-86
2021/05/12 08:33:16;;;;;;;5.97;5.25;;;23.10;91.10;;;;;;5072180;28;20514;-85
2021/05/12 08:35:44;;;;;;;5.25;4.75;;;23.10;91.10;;;;;;5054363;28;20020;-86
2021/05/12 08:38:18;;;;;;;5.57;4.50;;;23.20;91.10;;;;;;5072349;28;20059;-85
2021/05/12 08:40:45;;;;;;;5.28;4.53;;;23.10;91.10;;;;;;5072098;28;20493;-85
2021/05/12 08:43:12;;;;;;;5.25;4.60;;;23.20;91.10;;;;;;5054121;28;20051;-85
2021/05/12 08:45:38;;;;;;;5.65;4.50;;;23.20;91.10;;;;;;5054502;28;20029;-85
2021/05/12 08:48:10;;;;;;;4.68;4.05;;;23.20;91.10;;;;;;5072912;28;20025;-85
2021/05/12 08:50:36;;;;;;;5.03;4.25;;;23.20;91.10;;;;;;5075787;28;20555;-85
2021/05/12 08:53:03;;;;;;;5.13;3.97;;;23.20;91.10;;;;;;5075634;28;20033;-85
2021/05/12 08:55:31;;;;;;;4.90;3.63;;;23.20;91.10;;;;;;5075427;28;20032;-86
2021/05/12 08:57:56;;;;;;;4.57;3.88;;;23.20;91.10;;;;;;5057056;28;20115;-86
2021/05/12 09:00:22;;;;;;;5.13;3.75;;;23.20;91.10;;;;;;5057679;28;20064;-85
2021/05/12 09:02:48;;;;;;;3.83;3.10;;;23.20;91.10;;;;;;5057106;28;20479;-86
2021/05/12 09:05:14;;;;;;;4.13;3.15;;;23.20;91.10;;;;;;5075589;28;20060;-85
2021/05/12 09:07:40;;;;;;;3.28;2.70;;;23.20;91.10;;;;;;5075050;28;20058;-85
2021/05/12 09:10:07;;;;;;;3.25;2.72;;;23.20;91.10;;;;;;5056482;28;20045;-86
2021/05/12 09:12:53;;;;;;;4.57;3.38;;;23.20;91.10;;;;;;5055608;28;20036;-85
2021/05/12 09:15:22;;;;;;;2.40;2.20;;;23.30;91.10;;;;;;5075182;28;20024;-85
2021/05/12 09:17:52;;;;;;;3.63;2.80;;;23.20;91.10;;;;;;5057255;28;20389;-86
2021/05/12 09:20:24;;;;;;;3.35;2.75;;;23.20;91.10;;;;;;5040746;28;20162;-85
2021/05/12 09:23:25;;;;;;;2.95;2.38;;;23.20;91.00;;;;;;5075411;28;20027;-85
2021/05/12 09:25:56;;;;;;;2.47;2.22;;;23.20;91.30;;;;;;5057262;28;20028;-85
2021/05/12 09:28:26;;;;;;;3.03;2.33;;;23.20;91.10;;;;;;5056917;28;20035;-85
2021/05/12 09:31:03;;;;;;;3.30;2.42;;;23.20;91.10;;;;;;5091692;28;20112;-85
2021/05/12 09:33:31;;;;;;;2.67;2.47;;;23.30;91.10;;;;;;5076648;28;20150;-86
2021/05/12 09:35:58;;;;;;;2.78;2.35;;;23.30;91.10;;;;;;5095203;28;20032;-85
2021/05/12 09:38:26;;;;;;;2.53;2.30;;;23.30;91.10;;;;;;5077236;28;20077;-85
2021/05/12 09:41:10;;;;;;;2.33;2.03;;;23.20;91.00;;;;;;5076752;28;20020;-85
2021/05/12 09:43:50;;;;;;;2.38;1.95;;;23.30;91.00;;;;;;5095096;28;20026;-85
2021/05/12 09:46:20;;;;;;;2.10;1.90;;;23.20;91.00;;;;;;5077865;28;20032;-85
2021/05/12 09:49:09;;;;;;;2.42;2.22;;;23.30;91.00;;;;;;5076300;28;20494;-85
2021/05/12 09:51:38;;;;;;;2.30;2.10;;;23.30;91.00;;;;;;5055503;28;20127;-85
2021/05/12 09:54:32;;;;;;;2.45;2.17;;;23.20;91.00;;;;;;5076198;28;20493;-85
2021/05/12 09:57:00;;;;;;;3.17;2.42;;;23.30;90.90;;;;;;5091552;28;20470;-85
2021/05/12 09:59:29;;;;;;;2.97;2.17;;;23.30;91.00;;;;;;5094380;28;20043;-85
2021/05/12 10:02:00;;;;;;;2.30;2.10;;;23.30;91.00;;;;;;5076462;28;20107;-85
2021/05/12 10:04:35;;;;;;;2.55;2.25;;;23.30;91.00;;;;;;5094355;28;20034;-85
2021/05/12 10:07:12;;;;;;;2.10;1.90;;;23.30;91.00;;;;;;5076096;28;20073;-86
2021/05/12 10:09:39;;;;;;;3.05;2.25;;;23.30;90.90;;;;;;5076132;28;20413;-85
2021/05/12 10:12:08;;;;;;;2.40;2.17;;;23.30;90.90;;;;;;5059763;28;20123;-85
2021/05/12 10:14:36;;;;;;;2.60;2.08;;;23.30;90.90;;;;;;5094488;28;20034;-86
2021/05/12 10:17:04;;;;;;;2.22;1.92;;;23.30;90.90;;;;;;5076284;28;20032;-86
2021/05/12 10:19:31;;;;;;;2.20;2.00;;;23.30;91.10;;;;;;5076217;28;20032;-85
2021/05/12 10:21:59;;;;;;;2.10;1.73;;;23.30;91.00;;;;;;5059818;28;20042;-85
2021/05/12 10:24:26;;;;;;;2.40;2.10;;;23.30;90.80;;;;;;5076088;28;20036;-85
2021/05/12 10:26:52;;;;;;;2.50;2.30;;;23.30;90.80;;;;;;5059397;28;20032;-86
2021/05/12 10:29:20;;;;;;;2.35;2.15;;;23.30;90.80;;;;;;5094412;28;20427;-85
2021/05/12 10:31:46;;;;;;;2.80;2.08;;;23.30;90.80;;;;;;5076096;28;20054;-87
2021/05/12 10:34:34;;;;;;;2.05;1.85;;;23.30;90.80;;;;;;5093936;28;20131;-85
2021/05/12 10:37:24;;;;;;;2.55;2.20;;;23.30;90.80;;;;;;5094236;28;20024;-85
2021/05/12 10:39:58;;;;;;;2.33;2.10;;;23.30;90.80;;;;;;5094044;28;20375;-85
2021/05/12 10:48:40;;;;;;;4.88;3.28;;;23.30;90.80;;;;;;5085119;28;20114;-85
2021/05/12 10:51:10;;;;;;;4.07;3.30;;;23.30;90.80;;;;;;5058986;28;20482;-85
2021/05/12 10:53:45;;;;;;;3.53;3.00;;;23.30;90.80;;;;;;5093574;28;20032;-85
2021/05/12 10:56:13;;;;;;;3.90;3.45;;;23.30;90.70;;;;;;5091945;28;20432;-85
2021/05/12 10:58:43;;;;;;;3.40;2.97;;;23.30;90.70;;;;;;5074771;28;20097;-85
2021/05/12 11:01:10;;;;;;;3.65;3.00;;;23.30;90.70;;;;;;5074133;28;20454;-86
2021/05/12 11:03:54;;;;;;;3.50;2.95;;;23.30;90.70;;;;;;5095066;28;20047;-85
2021/05/12 11:06:25;;;;;;;4.53;3.40;;;23.30;90.70;;;;;;5075813;28;20020;-87
2021/05/12 11:09:11;;;;;;;3.97;3.30;;;23.30;90.80;;;;;;5074742;28;20032;-86
2021/05/12 11:11:43;;;;;;;4.25;3.20;;;23.30;90.80;;;;;;5074813;28;20023;-87
2021/05/12 11:14:25;;;;;;;3.92;3.00;;;23.30;90.70;;;;;;5093261;28;20107;-86
2021/05/12 11:17:13;;;;;;;3.97;3.17;;;23.30;90.70;;;;;;5075314;28;20032;-84
2021/05/12 11:22:44;;;;;;;3.67;3.25;;;23.30;90.60;;;;;;5093371;28;20029;-85
2021/05/12 11:25:42;;;;;;;3.67;2.92;;;23.40;90.60;;;;;;5075267;28;20037;-86
2021/05/12 11:33:25;;;;;;;3.28;2.65;;;23.40;90.60;;;;;;5093240;28;20050;-86
2021/05/12 11:36:16;;;;;;;2.67;2.25;;;23.40;90.60;;;;;;5075387;28;20392;-86
2021/05/12 11:38:40;;;;;;;3.60;2.83;;;23.40;90.60;;;;;;5092552;28;20051;-86
2021/05/12 11:41:10;;;;;;;3.72;3.08;;;23.40;90.60;;;;;;5074979;28;20054;-86
2021/05/12 11:43:41;;;;;;;3.15;2.55;;;23.40;90.50;;;;;;5093187;28;20024;-86
2021/05/12 11:46:11;;;;;;;2.85;2.33;;;23.40;90.50;;;;;;5074842;28;20155;-86
2021/05/12 11:48:43;;;;;;;2.67;2.25;;;23.40;90.50;;;;;;5075004;28;20145;-85
2021/05/12 11:51:10;;;;;;;2.28;2.03;;;23.40;90.50;;;;;;5092775;28;20016;-86
2021/05/12 11:53:38;;;;;;;2.28;2.03;;;23.40;90.40;;;;;;5075231;28;20150;-86
2021/05/12 11:56:05;;;;;;;2.83;2.30;;;23.40;90.40;;;;;;5093049;28;20016;-86
2021/05/12 11:58:31;;;;;;;2.60;1.98;;;23.40;90.40;;;;;;5058569;28;20401;-86
2021/05/12 12:01:11;;;;;;;2.13;1.80;;;23.40;90.40;;;;;;5092986;28;20019;-86
2021/05/12 12:03:41;;;;;;;1.90;1.70;;;23.40;90.40;;;;;;5092766;28;20449;-84
2021/05/12 12:06:07;;;;;;;2.25;1.98;;;23.40;90.40;;;;;;5092732;28;20027;-86
2021/05/12 12:08:35;;;;;;;1.92;1.67;;;23.40;90.40;;;;;;5058054;28;20032;-85
2021/05/12 12:11:13;;;;;;;2.78;2.30;;;23.40;90.30;;;;;;5093034;28;20123;-90
2021/05/12 12:13:44;;;;;;;2.10;1.60;;;23.40;90.30;;;;;;5093836;28;20492;-84
2021/05/12 12:16:11;;;;;;;1.98;1.75;;;23.40;90.40;;;;;;5092631;28;20024;-84
2021/05/12 12:18:39;;;;;;;1.95;1.48;;;23.40;90.30;;;;;;5074933;28;20337;-84
2021/05/12 12:21:12;;;;;;;1.50;1.40;;;23.40;90.30;;;;;;5075070;28;20483;-85
2021/05/12 12:23:39;;;;;;;2.13;1.60;;;23.40;90.30;;;;;;5078461;28;20028;-84
2021/05/12 12:26:16;;;;;;;2.10;1.42;;;23.40;90.30;;;;;;5096501;28;20359;-85
2021/05/12 12:28:48;;;;;;;1.67;1.42;;;23.50;90.30;;;;;;5096352;28;20016;-85
2021/05/12 12:31:22;;;;;;;1.83;1.42;;;23.40;90.30;;;;;;5078387;28;20023;-85
2021/05/12 12:34:07;;;;;;;;;;;23.40;90.30;;;;;;5062220;28;20052;-84
2021/05/12 12:36:32;;;;;;;1.25;1.08;;;23.40;90.30;;;;;;5096391;28;19907;-84
2021/05/12 12:39:02;;;;;;;1.70;1.10;;;23.40;90.30;;;;;;5061673;28;20377;-85
2021/05/12 12:41:29;;;;;;;1.23;0.98;;;23.40;90.30;;;;;;5078711;28;20023;-84
2021/05/12 12:43:55;;;;;;;1.23;0.98;;;23.40;90.30;;;;;;5078510;28;20027;-84
2021/05/12 12:46:27;;;;;;;1.27;1.17;;;23.40;90.20;;;;;;5061298;28;20020;-85
2021/05/12 12:48:53;;;;;;;1.25;1.13;;;23.40;90.20;;;;;;5096559;28;20031;-85
2021/05/12 12:51:39;;;;;;;1.27;1.17;;;23.40;90.10;;;;;;5061239;28;20024;-85
2021/05/12 12:54:06;;;;;;;1.05;0.93;;;23.40;90.10;;;;;;5096359;28;20028;-91